METAR Data
IDs: Format: Raw Decoded Include TAF

Data at: 0514 UTC 24 Sep 2018

KTSP 240455Z AUTO 00000KT 10SM CLR 17/03 A3000 RMK AO2
KTSP 240435Z AUTO 35003KT 10SM CLR 17/03 A3001 RMK AO2
KTSP 240415Z AUTO 26003KT 10SM CLR 17/04 A3001 RMK AO2
KTSP 240355Z AUTO 28004KT 10SM CLR 17/04 A3000 RMK AO2
KTSP 240335Z AUTO 26005KT 10SM CLR 18/04 A2999 RMK AO2
KTSP 240315Z AUTO 27007KT 10SM CLR 19/04 A2999 RMK AO2
KTSP 240255Z AUTO 27007KT 10SM CLR 20/04 A2999 RMK AO2
KTSP 240235Z AUTO 27006KT 10SM CLR 20/04 A2998 RMK AO2
KTSP 240215Z AUTO 27007KT 10SM CLR 20/04 A2998 RMK AO2
KTSP 240155Z AUTO 28008KT 10SM CLR 21/03 A2998 RMK AO2
KTSP 240135Z AUTO 29009KT 10SM CLR 23/03 A2998 RMK AO2
KTSP 240115Z AUTO 31010KT 10SM CLR 23/04 A2997 RMK AO2
KTSP 240055Z AUTO 31010KT 10SM CLR 24/03 A2998 RMK AO2
KTSP 240035Z AUTO 30012KT 10SM CLR 24/04 A2998 RMK AO2
KTSP 240015Z AUTO 31011KT 10SM CLR 25/03 A2998 RMK AO2
KTSP 232355Z AUTO 31017G20KT 10SM CLR 25/03 A2997 RMK AO2
KTSP 232335Z AUTO 31017G24KT 10SM CLR 26/03 A2997 RMK AO2
KTSP 232315Z AUTO 31015G19KT 10SM CLR 27/03 A2997 RMK AO2
KTSP 232255Z AUTO 31015G22KT 10SM CLR 27/03 A2998 RMK AO2
KTSP 232235Z AUTO 30014G20KT 10SM CLR 27/03 A2998 RMK AO2
KTSP 232215Z AUTO 32014G20KT 10SM CLR 28/02 A2998 RMK AO2
KTSP 232155Z AUTO 32017G21KT 10SM CLR 28/02 A2999 RMK AO2
KTSP 232135Z AUTO 32015G20KT 10SM CLR 28/02 A2999 RMK AO2
KTSP 232115Z AUTO 32015KT 10SM CLR 28/02 A3000 RMK AO2
KTSP 232055Z AUTO 32015G18KT 9SM CLR 28/02 A3001 RMK AO2
KTSP 232035Z AUTO 33015G19KT 10SM CLR 28/03 A3001 RMK AO2
KTSP 232015Z AUTO 32013G20KT 10SM CLR 28/02 A3002 RMK AO2
KTSP 231955Z AUTO 32016KT 10SM CLR 28/03 A3002 RMK AO2
KTSP 231935Z AUTO 31015G19KT 10SM CLR 28/02 A3003 RMK AO2
KTSP 231915Z AUTO 31015G19KT 10SM CLR 28/03 A3003 RMK AO2
KTSP 231855Z AUTO 32014G17KT 10SM CLR 28/03 A3004 RMK AO2
KTSP 231835Z AUTO 32014KT 10SM CLR 28/03 A3004 RMK AO2
KTSP 231815Z AUTO 31012G15KT 10SM CLR 28/03 A3005 RMK AO2
KTSP 231755Z AUTO 32013KT 10SM CLR 27/03 A3005 RMK AO2
KTSP 231735Z AUTO 32011KT 10SM CLR 28/03 A3005 RMK AO2
KTSP 231715Z AUTO 30009KT 10SM CLR 27/03 A3006 RMK AO2
KTSP 231655Z AUTO 31006KT 10SM CLR 25/03 A3006 RMK AO2
KTSP 231635Z AUTO 25004KT 10SM CLR 23/04 A3006 RMK AO2
KTSP 231615Z AUTO 00000KT 10SM CLR 22/04 A3006 RMK AO2
KTSP 231555Z AUTO 00000KT 10SM CLR 20/04 A3006 RMK AO2
KTSP 231535Z AUTO 00000KT 10SM CLR 19/04 A3006 RMK AO2
KTSP 231515Z AUTO 14003KT 10SM CLR 17/04 A3006 RMK AO2
KTSP 231455Z AUTO 12003KT 10SM CLR 15/04 A3006 RMK AO2
KTSP 231435Z AUTO 06003KT 10SM CLR 13/03 A3006 RMK AO2
KTSP 231415Z AUTO 12003KT 10SM CLR 11/03 A3006 RMK AO2
KTSP 231355Z AUTO 00000KT 10SM CLR 10/03 A3005 RMK AO2
KTSP 231335Z AUTO 10003KT 10SM CLR 10/03 A3005 RMK AO2
KTSP 231315Z AUTO 12003KT 10SM CLR 10/03 A3004 RMK AO2
KTSP 231255Z AUTO 00000KT 10SM CLR 10/03 A3004 RMK AO2
KTSP 231235Z AUTO 00000KT 10SM CLR 11/03 A3004 RMK AO2
KTSP 231215Z AUTO 00000KT 10SM CLR 12/03 A3004 RMK AO2
KTSP 231155Z AUTO 15006KT 10SM CLR 12/04 A3004 RMK AO2
KTSP 231135Z AUTO 00000KT 10SM CLR 12/04 A3004 RMK AO2
KTSP 231115Z AUTO 00000KT 10SM CLR 13/04 A3004 RMK AO2
KTSP 231055Z AUTO 00000KT 10SM CLR 14/03 A3004 RMK AO2
KTSP 231035Z AUTO 32003KT 10SM CLR 14/03 A3004 RMK AO2
KTSP 231015Z AUTO 00000KT 10SM CLR 14/03 A3004 RMK AO2
KTSP 230955Z AUTO 00000KT 10SM FEW090 14/03 A3005 RMK AO2
KTSP 230935Z AUTO 27004KT 10SM SCT090 14/03 A3005 RMK AO2
KTSP 230915Z AUTO 00000KT 10SM BKN090 13/03 A3005 RMK AO2
KTSP 230855Z AUTO 00000KT 10SM SCT090 12/03 A3005 RMK AO2
KTSP 230835Z AUTO 02003KT 10SM CLR 12/03 A3005 RMK AO2
KTSP 230815Z AUTO 00000KT 10SM CLR 13/03 A3006 RMK AO2
KTSP 230755Z AUTO 00000KT 10SM CLR 14/04 A3006 RMK AO2
KTSP 230735Z AUTO 00000KT 10SM CLR 12/04 A3006 RMK AO2
KTSP 230715Z AUTO 00000KT 10SM CLR 13/04 A3006 RMK AO2
KTSP 230655Z AUTO 00000KT 10SM CLR 14/04 A3006 RMK AO2
KTSP 230635Z AUTO 00000KT 10SM CLR 14/04 A3007 RMK AO2
KTSP 230615Z AUTO 00000KT 10SM CLR 15/04 A3007 RMK AO2
KTSP 230555Z AUTO 00000KT 10SM CLR 15/04 A3007 RMK AO2
KTSP 230535Z AUTO 00000KT 10SM CLR 15/04 A3007 RMK AO2
KTSP 230515Z AUTO 02004KT 10SM CLR 17/04 A3007 RMK AO2
KTSP 230455Z AUTO 00000KT 10SM CLR 18/04 A3007 RMK AO2
KTSP 230435Z AUTO 02003KT 10SM CLR 19/05 A3008 RMK AO2
KTSP 230415Z AUTO 28006KT 10SM CLR 20/05 A3007 RMK AO2
KTSP 230355Z AUTO 24005KT 10SM CLR 19/05 A3007 RMK AO2
KTSP 230335Z AUTO 32007KT 10SM CLR 20/05 A3006 RMK AO2
KTSP 230315Z AUTO 29008KT 10SM FEW060 20/05 A3006 RMK AO2
KTSP 230255Z AUTO 27006KT 10SM SCT060 20/05 A3006 RMK AO2
KTSP 230235Z AUTO 25005KT 10SM SCT060 BKN100 22/04 A3006 RMK AO2
KTSP 230215Z AUTO 27006KT 10SM FEW060 BKN100 22/04 A3005 RMK AO2
KTSP 230155Z AUTO 32009KT 10SM FEW100 23/04 A3005 RMK AO2
KTSP 230135Z AUTO 29008KT 10SM FEW100 24/04 A3005 RMK AO2
KTSP 230115Z AUTO 31007KT 10SM CLR 25/04 A3005 RMK AO2
KTSP 230055Z AUTO 32010KT 10SM CLR 25/04 A3005 RMK AO2
KTSP 230035Z AUTO 31009KT 10SM CLR 27/04 A3005 RMK AO2
KTSP 230015Z AUTO 32008KT 10SM CLR 28/04 A3005 RMK AO2
KTSP 222355Z AUTO 32010G17KT 10SM CLR 28/04 A3005 RMK AO2
KTSP 222335Z AUTO 31008KT 10SM CLR 28/04 A3005 RMK AO2
KTSP 222315Z AUTO 31011KT 10SM CLR 29/03 A3005 RMK AO2
KTSP 222255Z AUTO 30009G16KT 10SM CLR 28/04 A3005 RMK AO2
KTSP 222235Z AUTO 32012G15KT 10SM CLR 29/04 A3006 RMK AO2
KTSP 222215Z AUTO 32011G16KT 10SM FEW100 29/03 A3006 RMK AO2
KTSP 222155Z AUTO 32013KT 10SM FEW100 30/03 A3006 RMK AO2
KTSP 222135Z AUTO 33010G14KT 10SM BKN090 30/03 A3006 RMK AO2
KTSP 222115Z AUTO 26008KT 10SM BKN090 30/03 A3008 RMK AO2
KTSP 222055Z AUTO 32010G17KT 10SM BKN090 29/03 A3008 RMK AO2
KTSP 222035Z AUTO 30010G15KT 10SM SCT090 29/03 A3009 RMK AO2
KTSP 222015Z AUTO 30010KT 10SM SCT090 30/03 A3010 RMK AO2
KTSP 221955Z AUTO 30008G17KT 10SM SCT090 30/03 A3011 RMK AO2
KTSP 221935Z AUTO 24011G14KT 10SM BKN090 29/04 A3011 RMK AO2
KTSP 221915Z AUTO 28010G15KT 10SM SCT090 29/04 A3012 RMK AO2
KTSP 221855Z AUTO 24004KT 10SM CLR 29/04 A3012 RMK AO2
KTSP 221835Z AUTO 20009G14KT 10SM CLR 29/03 A3013 RMK AO2
KTSP 221815Z AUTO 23008KT 220V280 10SM CLR 28/03 A3013 RMK AO2
KTSP 221755Z AUTO 33003KT 10SM CLR 28/03 A3014 RMK AO2
KTSP 221735Z AUTO 30006KT 10SM CLR 28/02 A3014 RMK AO2
KTSP 221715Z AUTO 27003KT 10SM CLR 27/02 A3014 RMK AO2